sensor_id;sensor_type;location;lat;lon;timestamp;pressure;altitude;pressure_sealevel;temperature;humidity
19596;BME280;9945;46.010;8.946;2023-03-25T00:02:19;96895.59;;;13.90;100.00
19596;BME280;9945;46.010;8.946;2023-03-25T00:04:49;96903.66;;;13.88;100.00
19596;BME280;9945;46.010;8.946;2023-03-25T00:07:16;96904.47;;;13.89;100.00
19596;BME280;9945;46.010;8.946;2023-03-25T00:09:45;96905.53;;;14.02;100.00
19596;BME280;9945;46.010;8.946;2023-03-25T00:12:13;96903.13;;;13.93;100.00
19596;BME280;9945;46.010;8.946;2023-03-25T00:14:42;96917.94;;;13.94;100.00
19596;BME280;9945;46.010;8.946;2023-03-25T00:17:19;96906.94;;;13.90;100.00
19596;BME280;9945;46.010;8.946;2023-03-25T00:19:46;96905.28;;;13.89;100.00
19596;BME280;9945;46.010;8.946;2023-03-25T00:22:15;96896.41;;;13.90;100.00
19596;BME280;9945;46.010;8.946;2023-03-25T00:24:42;96889.97;;;13.93;100.00
19596;BME280;9945;46.010;8.946;2023-03-25T00:27:10;96890.63;;;13.95;100.00
19596;BME280;9945;46.010;8.946;2023-03-25T00:29:39;96889.81;;;13.94;100.00
19596;BME280;9945;46.010;8.946;2023-03-25T00:32:06;96886.97;;;13.96;100.00
19596;BME280;9945;46.010;8.946;2023-03-25T00:34:33;96884.53;;;13.94;100.00
19596;BME280;9945;46.010;8.946;2023-03-25T00:37:07;96876.75;;;14.01;100.00
19596;BME280;9945;46.010;8.946;2023-03-25T00:39:34;96874.84;;;13.95;100.00
19596;BME280;9945;46.010;8.946;2023-03-25T00:42:01;96866.88;;;14.03;100.00
19596;BME280;9945;46.010;8.946;2023-03-25T00:44:30;96872.31;;;14.01;100.00
19596;BME280;9945;46.010;8.946;2023-03-25T00:46:57;96882.84;;;14.01;100.00
19596;BME280;9945;46.010;8.946;2023-03-25T00:49:24;96875.19;;;13.92;100.00
19596;BME280;9945;46.010;8.946;2023-03-25T00:51:53;96875.28;;;13.98;100.00
19596;BME280;9945;46.010;8.946;2023-03-25T00:54:20;96873.38;;;13.92;100.00
19596;BME280;9945;46.010;8.946;2023-03-25T00:56:47;96866.63;;;13.90;100.00
19596;BME280;9945;46.010;8.946;2023-03-25T00:59:14;96871.25;;;13.88;100.00
19596;BME280;9945;46.010;8.946;2023-03-25T01:01:42;96857.91;;;13.89;100.00
19596;BME280;9945;46.010;8.946;2023-03-25T01:04:10;96858.41;;;13.93;100.00
19596;BME280;9945;46.010;8.946;2023-03-25T01:06:39;96855.84;;;13.85;100.00
19596;BME280;9945;46.010;8.946;2023-03-25T01:09:09;96854.53;;;13.81;100.00
19596;BME280;9945;46.010;8.946;2023-03-25T01:11:39;96843.84;;;13.82;100.00
19596;BME280;9945;46.010;8.946;2023-03-25T01:14:10;96837.28;;;13.78;100.00
19596;BME280;9945;46.010;8.946;2023-03-25T01:16:38;96828.22;;;13.81;100.00
19596;BME280;9945;46.010;8.946;2023-03-25T01:19:06;96829.69;;;13.83;100.00
19596;BME280;9945;46.010;8.946;2023-03-25T01:21:33;96825.69;;;13.87;100.00
19596;BME280;9945;46.010;8.946;2023-03-25T01:24:01;96824.00;;;13.94;100.00
19596;BME280;9945;46.010;8.946;2023-03-25T01:26:28;96824.00;;;13.94;100.00
19596;BME280;9945;46.010;8.946;2023-03-25T01:28:55;96822.53;;;13.92;100.00
19596;BME280;9945;46.010;8.946;2023-03-25T01:31:21;96822.47;;;14.00;100.00
19596;BME280;9945;46.010;8.946;2023-03-25T01:33:50;96814.28;;;13.95;100.00
19596;BME280;9945;46.010;8.946;2023-03-25T01:36:18;96806.75;;;13.92;100.00
19596;BME280;9945;46.010;8.946;2023-03-25T01:38:45;96801.84;;;13.89;100.00
19596;BME280;9945;46.010;8.946;2023-03-25T01:41:15;96800.84;;;13.90;100.00
19596;BME280;9945;46.010;8.946;2023-03-25T01:44:00;96803.03;;;13.86;100.00
19596;BME280;9945;46.010;8.946;2023-03-25T01:46:27;96804.19;;;13.84;100.00
19596;BME280;9945;46.010;8.946;2023-03-25T01:48:54;96797.19;;;13.76;100.00
19596;BME280;9945;46.010;8.946;2023-03-25T01:51:25;96797.53;;;13.73;100.00
19596;BME280;9945;46.010;8.946;2023-03-25T01:53:53;96797.88;;;13.70;100.00
19596;BME280;9945;46.010;8.946;2023-03-25T01:56:24;96800.44;;;13.78;100.00
19596;BME280;9945;46.010;8.946;2023-03-25T01:58:55;96801.16;;;13.72;100.00
19596;BME280;9945;46.010;8.946;2023-03-25T02:01:24;96798.94;;;13.84;100.00
19596;BME280;9945;46.010;8.946;2023-03-25T02:03:52;96803.16;;;13.70;100.00
19596;BME280;9945;46.010;8.946;2023-03-25T02:06:33;96810.41;;;13.68;100.00
19596;BME280;9945;46.010;8.946;2023-03-25T02:09:04;96810.22;;;13.70;100.00
19596;BME280;9945;46.010;8.946;2023-03-25T02:11:34;96804.69;;;13.64;100.00
19596;BME280;9945;46.010;8.946;2023-03-25T02:14:04;96802.31;;;13.70;100.00
19596;BME280;9945;46.010;8.946;2023-03-25T02:16:37;96804.97;;;13.70;100.00
19596;BME280;9945;46.010;8.946;2023-03-25T02:19:37;96811.94;;;13.62;100.00
19596;BME280;9945;46.010;8.946;2023-03-25T02:22:29;96804.69;;;13.64;100.00
19596;BME280;9945;46.010;8.946;2023-03-25T02:25:42;96810.66;;;13.58;100.00
19596;BME280;9945;46.010;8.946;2023-03-25T02:28:17;96802.22;;;13.63;100.00
19596;BME280;9945;46.010;8.946;2023-03-25T02:34:11;96817.78;;;13.50;100.00
19596;BME280;9945;46.010;8.946;2023-03-25T02:37:02;96815.00;;;13.51;100.00
19596;BME280;9945;46.010;8.946;2023-03-25T02:39:40;96813.81;;;13.54;100.00
19596;BME280;9945;46.010;8.946;2023-03-25T02:42:14;96815.00;;;13.51;100.00
19596;BME280;9945;46.010;8.946;2023-03-25T02:44:47;96800.88;;;13.44;100.00
19596;BME280;9945;46.010;8.946;2023-03-25T02:47:19;96801.25;;;13.41;100.00
19596;BME280;9945;46.010;8.946;2023-03-25T02:49:51;96806.50;;;13.41;100.00
19596;BME280;9945;46.010;8.946;2023-03-25T02:52:23;96800.25;;;13.42;100.00
19596;BME280;9945;46.010;8.946;2023-03-25T02:54:53;96806.78;;;13.46;100.00
19596;BME280;9945;46.010;8.946;2023-03-25T02:57:24;96801.25;;;13.41;100.00
19596;BME280;9945;46.010;8.946;2023-03-25T02:59:54;96801.53;;;13.46;100.00
19596;BME280;9945;46.010;8.946;2023-03-25T03:02:25;96797.25;;;13.45;100.00
19596;BME280;9945;46.010;8.946;2023-03-25T03:04:54;96796.22;;;13.54;100.00
19596;BME280;9945;46.010;8.946;2023-03-25T03:07:23;96795.81;;;13.43;100.00
19596;BME280;9945;46.010;8.946;2023-03-25T03:09:59;96791.56;;;13.42;100.00
19596;BME280;9945;46.010;8.946;2023-03-25T03:12:48;96800.31;;;13.34;100.00
19596;BME280;9945;46.010;8.946;2023-03-25T03:15:23;96795.75;;;13.28;100.00
19596;BME280;9945;46.010;8.946;2023-03-25T03:18:04;96803.00;;;13.26;100.00
19596;BME280;9945;46.010;8.946;2023-03-25T03:20:37;96806.25;;;13.28;100.00
19596;BME280;9945;46.010;8.946;2023-03-25T03:23:09;96798.03;;;13.31;100.00
19596;BME280;9945;46.010;8.946;2023-03-25T03:25:46;96799.34;;;13.35;100.00
19596;BME280;9945;46.010;8.946;2023-03-25T03:28:20;96801.38;;;13.25;100.00
19596;BME280;9945;46.010;8.946;2023-03-25T03:30:52;96799.84;;;13.31;100.00
19596;BME280;9945;46.010;8.946;2023-03-25T03:33:26;96796.75;;;13.27;100.00
19596;BME280;9945;46.010;8.946;2023-03-25T03:35:58;96792.50;;;13.26;100.00
19596;BME280;9945;46.010;8.946;2023-03-25T03:38:30;96794.25;;;13.34;100.00
19596;BME280;9945;46.010;8.946;2023-03-25T03:41:05;96800.50;;;13.33;100.00
19596;BME280;9945;46.010;8.946;2023-03-25T03:43:36;96801.47;;;13.32;100.00
19596;BME280;9945;46.010;8.946;2023-03-25T03:46:10;96793.78;;;13.30;100.00
19596;BME280;9945;46.010;8.946;2023-03-25T03:48:41;96794.94;;;13.27;100.00
19596;BME280;9945;46.010;8.946;2023-03-25T03:51:13;96804.00;;;13.25;100.00
19596;BME280;9945;46.010;8.946;2023-03-25T03:53:48;96805.28;;;13.29;100.00
19596;BME280;9945;46.010;8.946;2023-03-25T03:56:20;96815.19;;;13.19;100.00
19596;BME280;9945;46.010;8.946;2023-03-25T03:58:53;96807.63;;;13.24;100.00
19596;BME280;9945;46.010;8.946;2023-03-25T04:01:26;96816.84;;;13.12;100.00
19596;BME280;9945;46.010;8.946;2023-03-25T04:04:01;96812.16;;;13.30;100.00
19596;BME280;9945;46.010;8.946;2023-03-25T04:06:32;96808.66;;;13.15;100.00
19596;BME280;9945;46.010;8.946;2023-03-25T04:09:10;96809.00;;;13.04;100.00
19596;BME280;9945;46.010;8.946;2023-03-25T04:11:47;96815.03;;;12.89;100.00
19596;BME280;9945;46.010;8.946;2023-03-25T04:14:16;96816.88;;;12.81;100.00
19596;BME280;9945;46.010;8.946;2023-03-25T04:16:42;96806.22;;;12.74;100.00
19596;BME280;9945;46.010;8.946;2023-03-25T04:19:11;96814.16;;;12.66;100.00
19596;BME280;9945;46.010;8.946;2023-03-25T04:21:43;96810.88;;;12.64;100.00
19596;BME280;9945;46.010;8.946;2023-03-25T04:24:09;96814.16;;;12.66;100.00
19596;BME280;9945;46.010;8.946;2023-03-25T04:26:36;96817.09;;;12.63;100.00
19596;BME280;9945;46.010;8.946;2023-03-25T04:29:05;96817.94;;;12.64;100.00
19596;BME280;9945;46.010;8.946;2023-03-25T04:31:32;96821.22;;;12.66;100.00
19596;BME280;9945;46.010;8.946;2023-03-25T04:33:59;96822.16;;;12.73;100.00
19596;BME280;9945;46.010;8.946;2023-03-25T04:36:27;96831.69;;;12.74;100.00
19596;BME280;9945;46.010;8.946;2023-03-25T04:38:58;96820.19;;;12.75;100.00
19596;BME280;9945;46.010;8.946;2023-03-25T04:41:25;96822.00;;;12.74;100.00
19596;BME280;9945;46.010;8.946;2023-03-25T04:43:53;96822.00;;;12.74;100.00
19596;BME280;9945;46.010;8.946;2023-03-25T04:46:21;96823.44;;;12.77;100.00
19596;BME280;9945;46.010;8.946;2023-03-25T04:48:48;96803.25;;;12.77;100.00
19596;BME280;9945;46.010;8.946;2023-03-25T04:51:15;96806.41;;;12.73;100.00
19596;BME280;9945;46.010;8.946;2023-03-25T04:53:42;96812.81;;;12.70;100.00
19596;BME280;9945;46.010;8.946;2023-03-25T04:56:12;96808.38;;;12.71;100.00
19596;BME280;9945;46.010;8.946;2023-03-25T04:58:41;96804.44;;;12.75;100.00
19596;BME280;9945;46.010;8.946;2023-03-25T05:01:18;96802.81;;;12.66;100.00
19596;BME280;9945;46.010;8.946;2023-03-25T05:03:47;96800.41;;;12.56;100.00
19596;BME280;9945;46.010;8.946;2023-03-25T05:06:15;96807.94;;;12.51;100.00
19596;BME280;9945;46.010;8.946;2023-03-25T05:08:42;96813.41;;;12.49;100.00
19596;BME280;9945;46.010;8.946;2023-03-25T05:11:09;96809.75;;;12.50;100.00
19596;BME280;9945;46.010;8.946;2023-03-25T05:13:36;96812.84;;;12.62;100.00
19596;BME280;9945;46.010;8.946;2023-03-25T05:16:03;96821.22;;;12.66;100.00
19596;BME280;9945;46.010;8.946;2023-03-25T05:18:30;96827.56;;;12.71;100.00
19596;BME280;9945;46.010;8.946;2023-03-25T05:20:58;96832.34;;;12.76;100.00
19596;BME280;9945;46.010;8.946;2023-03-25T05:23:27;96827.38;;;12.81;100.00
19596;BME280;9945;46.010;8.946;2023-03-25T05:25:56;96827.88;;;12.76;100.00
19596;BME280;9945;46.010;8.946;2023-03-25T05:28:22;96825.75;;;12.80;100.00
19596;BME280;9945;46.010;8.946;2023-03-25T05:30:49;96830.81;;;12.81;100.00
19596;BME280;9945;46.010;8.946;2023-03-25T05:33:17;96828.66;;;12.85;100.00
19596;BME280;9945;46.010;8.946;2023-03-25T05:35:44;96831.78;;;12.88;100.00
19596;BME280;9945;46.010;8.946;2023-03-25T05:38:14;96833.25;;;12.91;100.00
19596;BME280;9945;46.010;8.946;2023-03-25T05:40:43;96838.66;;;12.89;100.00
19596;BME280;9945;46.010;8.946;2023-03-25T05:43:11;96836.03;;;12.89;100.00
19596;BME280;9945;46.010;8.946;2023-03-25T05:45:39;96839.69;;;13.11;100.00
19596;BME280;9945;46.010;8.946;2023-03-25T05:48:06;96839.78;;;12.95;100.00
19596;BME280;9945;46.010;8.946;2023-03-25T05:50:33;96844.56;;;12.92;100.00
19596;BME280;9945;46.010;8.946;2023-03-25T05:53:00;96854.09;;;12.84;100.00
19596;BME280;9945;46.010;8.946;2023-03-25T05:55:28;96864.31;;;12.79;100.00
19596;BME280;9945;46.010;8.946;2023-03-25T05:57:55;96868.84;;;12.94;100.00
19596;BME280;9945;46.010;8.946;2023-03-25T06:00:23;96865.72;;;12.98;100.00
19596;BME280;9945;46.010;8.946;2023-03-25T06:02:50;96867.25;;;12.93;100.00
19596;BME280;9945;46.010;8.946;2023-03-25T06:05:17;96870.69;;;12.85;100.00
19596;BME280;9945;46.010;8.946;2023-03-25T06:07:48;96875.63;;;12.88;100.00
19596;BME280;9945;46.010;8.946;2023-03-25T06:10:16;96878.75;;;12.92;100.00
19596;BME280;9945;46.010;8.946;2023-03-25T06:12:45;96879.31;;;13.02;100.00
19596;BME280;9945;46.010;8.946;2023-03-25T06:15:14;96886.41;;;13.01;100.00
19596;BME280;9945;46.010;8.946;2023-03-25T06:17:42;96882.56;;;13.12;100.00
19596;BME280;9945;46.010;8.946;2023-03-25T06:20:12;96879.06;;;13.27;100.00
19596;BME280;9945;46.010;8.946;2023-03-25T06:22:42;96879.97;;;13.43;100.00
19596;BME280;9945;46.010;8.946;2023-03-25T06:25:13;96870.72;;;13.47;100.00
19596;BME280;9945;46.010;8.946;2023-03-25T06:27:41;96881.97;;;13.63;100.00
19596;BME280;9945;46.010;8.946;2023-03-25T06:30:12;96882.63;;;13.66;100.00
19596;BME280;9945;46.010;8.946;2023-03-25T06:32:39;96889.75;;;13.57;100.00
19596;BME280;9945;46.010;8.946;2023-03-25T06:35:08;96890.56;;;13.57;100.00
19596;BME280;9945;46.010;8.946;2023-03-25T06:37:36;96879.16;;;13.65;100.00
19596;BME280;9945;46.010;8.946;2023-03-25T06:40:05;96879.03;;;13.81;100.00
19596;BME280;9945;46.010;8.946;2023-03-25T06:42:32;96882.28;;;13.69;100.00
19596;BME280;9945;46.010;8.946;2023-03-25T06:44:59;96887.47;;;13.77;100.00
19596;BME280;9945;46.010;8.946;2023-03-25T06:47:30;96883.44;;;14.03;100.00
19596;BME280;9945;46.010;8.946;2023-03-25T06:49:57;96886.16;;;14.18;100.00
19596;BME280;9945;46.010;8.946;2023-03-25T06:52:24;96892.47;;;14.47;100.00
19596;BME280;9945;46.010;8.946;2023-03-25T06:54:51;96881.50;;;14.58;100.00
19596;BME280;9945;46.010;8.946;2023-03-25T06:57:18;96882.59;;;14.78;100.00
19596;BME280;9945;46.010;8.946;2023-03-25T06:59:44;96893.56;;;15.11;100.00
19596;BME280;9945;46.010;8.946;2023-03-25T07:02:14;96899.38;;;15.21;98.18
19596;BME280;9945;46.010;8.946;2023-03-25T07:04:42;96903.97;;;15.34;98.27
19596;BME280;9945;46.010;8.946;2023-03-25T07:07:09;96893.69;;;15.54;97.52
19596;BME280;9945;46.010;8.946;2023-03-25T07:09:36;96890.63;;;15.71;96.74
19596;BME280;9945;46.010;8.946;2023-03-25T07:12:03;96893.38;;;15.84;95.25
19596;BME280;9945;46.010;8.946;2023-03-25T07:14:30;96878.72;;;16.03;93.56
19596;BME280;9945;46.010;8.946;2023-03-25T07:16:57;96885.28;;;16.07;92.04
19596;BME280;9945;46.010;8.946;2023-03-25T07:19:24;96882.38;;;16.02;92.86
19596;BME280;9945;46.010;8.946;2023-03-25T07:21:52;96892.16;;;16.08;89.96
19596;BME280;9945;46.010;8.946;2023-03-25T07:24:19;96891.28;;;16.22;89.02
19596;BME280;9945;46.010;8.946;2023-03-25T07:26:46;96878.25;;;16.21;86.23
19596;BME280;9945;46.010;8.946;2023-03-25T07:29:13;96878.16;;;16.36;86.11
19596;BME280;9945;46.010;8.946;2023-03-25T07:31:42;96882.75;;;16.48;87.62
19596;BME280;9945;46.010;8.946;2023-03-25T07:34:11;96887.25;;;16.54;85.76
19596;BME280;9945;46.010;8.946;2023-03-25T07:36:37;96887.31;;;16.61;86.58
19596;BME280;9945;46.010;8.946;2023-03-25T07:39:06;96889.66;;;16.77;84.71
19596;BME280;9945;46.010;8.946;2023-03-25T07:41:32;96890.47;;;16.78;85.25
19596;BME280;9945;46.010;8.946;2023-03-25T07:43:59;96893.59;;;16.94;83.26
19596;BME280;9945;46.010;8.946;2023-03-25T07:46:26;96900.38;;;17.03;81.71
19596;BME280;9945;46.010;8.946;2023-03-25T07:48:53;96900.63;;;17.15;80.66
19596;BME280;9945;46.010;8.946;2023-03-25T07:51:20;96903.50;;;17.20;80.89
19596;BME280;9945;46.010;8.946;2023-03-25T07:53:47;96910.44;;;17.28;80.38
19596;BME280;9945;46.010;8.946;2023-03-25T07:56:15;96915.63;;;17.43;78.60
19596;BME280;9945;46.010;8.946;2023-03-25T07:58:42;96917.28;;;17.50;79.29
19596;BME280;9945;46.010;8.946;2023-03-25T08:01:09;96919.59;;;17.66;79.01
19596;BME280;9945;46.010;8.946;2023-03-25T08:03:36;96907.00;;;17.82;78.46
19596;BME280;9945;46.010;8.946;2023-03-25T08:06:05;96912.28;;;17.88;76.67
19596;BME280;9945;46.010;8.946;2023-03-25T08:08:32;96927.22;;;18.09;76.15
19596;BME280;9945;46.010;8.946;2023-03-25T08:10:59;96918.06;;;18.25;75.34
19596;BME280;9945;46.010;8.946;2023-03-25T08:13:29;96934.16;;;18.23;72.31
19596;BME280;9945;46.010;8.946;2023-03-25T08:15:56;96941.28;;;18.09;71.51
19596;BME280;9945;46.010;8.946;2023-03-25T08:18:23;96941.03;;;17.91;69.30
19596;BME280;9945;46.010;8.946;2023-03-25T08:20:50;96938.41;;;18.04;69.04
19596;BME280;9945;46.010;8.946;2023-03-25T08:23:17;96934.75;;;18.12;65.29
19596;BME280;9945;46.010;8.946;2023-03-25T08:25:45;96933.94;;;18.11;64.59
19596;BME280;9945;46.010;8.946;2023-03-25T08:28:14;96919.06;;;18.17;64.29
19596;BME280;9945;46.010;8.946;2023-03-25T08:30:43;96919.03;;;18.04;65.13
19596;BME280;9945;46.010;8.946;2023-03-25T08:33:11;96918.63;;;18.13;66.84
19596;BME280;9945;46.010;8.946;2023-03-25T08:35:37;96916.22;;;18.25;68.12
19596;BME280;9945;46.010;8.946;2023-03-25T08:38:04;96921.53;;;18.58;70.43
19596;BME280;9945;46.010;8.946;2023-03-25T08:40:31;96910.91;;;18.84;69.80
19596;BME280;9945;46.010;8.946;2023-03-25T08:42:58;96901.28;;;18.90;66.68
19596;BME280;9945;46.010;8.946;2023-03-25T08:45:26;96898.03;;;18.95;65.58
19596;BME280;9945;46.010;8.946;2023-03-25T08:47:54;96900.44;;;19.03;64.29
19596;BME280;9945;46.010;8.946;2023-03-25T08:50:20;96894.25;;;19.15;64.72
19596;BME280;9945;46.010;8.946;2023-03-25T08:52:47;96898.06;;;19.39;63.04
19596;BME280;9945;46.010;8.946;2023-03-25T08:55:17;96896.59;;;19.50;56.58
19596;BME280;9945;46.010;8.946;2023-03-25T08:57:44;96898.84;;;19.53;54.88
19596;BME280;9945;46.010;8.946;2023-03-25T09:00:12;96892.88;;;19.57;53.72
19596;BME280;9945;46.010;8.946;2023-03-25T09:02:40;96895.84;;;19.81;55.14
19596;BME280;9945;46.010;8.946;2023-03-25T09:05:10;96887.69;;;20.07;53.77
19596;BME280;9945;46.010;8.946;2023-03-25T09:07:38;96885.72;;;20.21;50.88
19596;BME280;9945;46.010;8.946;2023-03-25T09:10:06;96881.19;;;20.53;47.79
19596;BME280;9945;46.010;8.946;2023-03-25T09:12:33;96892.00;;;20.58;55.35
19596;BME280;9945;46.010;8.946;2023-03-25T09:15:00;96898.31;;;20.82;54.25
19596;BME280;9945;46.010;8.946;2023-03-25T09:17:27;96907.28;;;21.90;50.61
19596;BME280;9945;46.010;8.946;2023-03-25T09:26:19;96892.47;;;27.18;34.05
19596;BME280;9945;46.010;8.946;2023-03-25T09:28:45;96884.22;;;28.42;31.30
19596;BME280;9945;46.010;8.946;2023-03-25T09:31:13;96886.88;;;29.08;29.01
19596;BME280;9945;46.010;8.946;2023-03-25T09:33:40;96885.72;;;29.99;27.24
19596;BME280;9945;46.010;8.946;2023-03-25T09:38:53;96873.16;;;28.74;27.80
19596;BME280;9945;46.010;8.946;2023-03-25T09:41:33;96874.22;;;27.97;27.97
19596;BME280;9945;46.010;8.946;2023-03-25T09:44:13;96874.66;;;27.54;32.22
19596;BME280;9945;46.010;8.946;2023-03-25T09:46:41;96879.91;;;27.28;32.96
19596;BME280;9945;46.010;8.946;2023-03-25T09:49:14;96872.16;;;27.42;33.26
19596;BME280;9945;46.010;8.946;2023-03-25T09:51:44;96872.78;;;27.59;32.58
19596;BME280;9945;46.010;8.946;2023-03-25T09:54:17;96878.38;;;27.53;32.04
19596;BME280;9945;46.010;8.946;2023-03-25T09:56:47;96882.88;;;28.65;29.69
19596;BME280;9945;46.010;8.946;2023-03-25T09:59:18;96876.81;;;29.88;29.41
19596;BME280;9945;46.010;8.946;2023-03-25T10:01:51;96869.63;;;30.86;25.89
19596;BME280;9945;46.010;8.946;2023-03-25T10:04:42;96868.34;;;30.44;24.02
19596;BME280;9945;46.010;8.946;2023-03-25T10:07:27;96866.81;;;31.67;23.36
19596;BME280;9945;46.010;8.946;2023-03-25T10:10:05;96873.13;;;33.30;21.54
19596;BME280;9945;46.010;8.946;2023-03-25T10:12:42;96872.91;;;34.62;20.86
19596;BME280;9945;46.010;8.946;2023-03-25T10:15:16;96861.84;;;35.20;19.78
19596;BME280;9945;46.010;8.946;2023-03-25T10:17:57;96856.94;;;34.46;19.44
19596;BME280;9945;46.010;8.946;2023-03-25T10:20:37;96852.94;;;32.76;19.99
19596;BME280;9945;46.010;8.946;2023-03-25T10:23:12;96857.28;;;32.07;21.59
19596;BME280;9945;46.010;8.946;2023-03-25T10:25:45;96859.97;;;34.67;19.87
19596;BME280;9945;46.010;8.946;2023-03-25T10:28:19;96855.34;;;36.21;17.63
19596;BME280;9945;46.010;8.946;2023-03-25T10:30:50;96860.28;;;36.70;16.98
19596;BME280;9945;46.010;8.946;2023-03-25T10:33:24;96859.34;;;36.41;16.90
19596;BME280;9945;46.010;8.946;2023-03-25T10:35:55;96851.84;;;37.90;16.08
19596;BME280;9945;46.010;8.946;2023-03-25T10:38:24;96854.50;;;39.66;14.49
19596;BME280;9945;46.010;8.946;2023-03-25T10:41:02;96847.81;;;41.66;13.40
19596;BME280;9945;46.010;8.946;2023-03-25T10:43:33;96846.69;;;43.78;12.08
19596;BME280;9945;46.010;8.946;2023-03-25T10:46:15;96833.06;;;43.92;11.98
19596;BME280;9945;46.010;8.946;2023-03-25T10:48:44;96825.91;;;42.89;12.32
19596;BME280;9945;46.010;8.946;2023-03-25T10:51:13;96828.41;;;41.28;12.74
19596;BME280;9945;46.010;8.946;2023-03-25T10:53:41;96839.72;;;38.86;13.75
19596;BME280;9945;46.010;8.946;2023-03-25T10:56:13;96830.34;;;36.91;14.85
19596;BME280;9945;46.010;8.946;2023-03-25T10:58:45;96829.47;;;35.75;15.81
19596;BME280;9945;46.010;8.946;2023-03-25T11:01:15;96818.94;;;35.25;15.85
19596;BME280;9945;46.010;8.946;2023-03-25T11:03:46;96813.81;;;34.84;16.32
19596;BME280;9945;46.010;8.946;2023-03-25T11:06:21;96826.34;;;35.42;15.32
19596;BME280;9945;46.010;8.946;2023-03-25T11:09:22;96808.44;;;35.58;15.91
19596;BME280;9945;46.010;8.946;2023-03-25T11:11:51;96825.72;;;37.21;14.83
19596;BME280;9945;46.010;8.946;2023-03-25T11:14:21;96826.94;;;36.13;15.68
19596;BME280;9945;46.010;8.946;2023-03-25T11:16:53;96819.59;;;34.61;15.67
19596;BME280;9945;46.010;8.946;2023-03-25T11:19:24;96824.41;;;34.64;16.29
19596;BME280;9945;46.010;8.946;2023-03-25T11:21:54;96825.59;;;35.59;15.09
19596;BME280;9945;46.010;8.946;2023-03-25T11:24:26;96818.34;;;37.51;14.62
19596;BME280;9945;46.010;8.946;2023-03-25T11:26:57;96828.94;;;37.94;13.28
19596;BME280;9945;46.010;8.946;2023-03-25T11:29:26;96824.72;;;37.55;13.21
19596;BME280;9945;46.010;8.946;2023-03-25T11:32:03;96826.31;;;38.72;11.98
19596;BME280;9945;46.010;8.946;2023-03-25T11:34:31;96825.56;;;39.93;11.37
19596;BME280;9945;46.010;8.946;2023-03-25T11:37:00;96832.44;;;41.65;11.32
19596;BME280;9945;46.010;8.946;2023-03-25T11:39:32;96834.97;;;41.54;10.51
19596;BME280;9945;46.010;8.946;2023-03-25T11:42:12;96833.22;;;43.00;9.71
19596;BME280;9945;46.010;8.946;2023-03-25T11:44:40;96820.72;;;45.23;9.10
19596;BME280;9945;46.010;8.946;2023-03-25T11:47:09;96829.69;;;46.33;8.63
19596;BME280;9945;46.010;8.946;2023-03-25T11:49:38;96833.34;;;47.86;7.08
19596;BME280;9945;46.010;8.946;2023-03-25T11:52:07;96828.06;;;48.97;6.95
19596;BME280;9945;46.010;8.946;2023-03-25T11:54:36;96831.13;;;50.29;6.45
19596;BME280;9945;46.010;8.946;2023-03-25T11:57:05;96827.41;;;50.39;6.48
19596;BME280;9945;46.010;8.946;2023-03-25T11:59:42;96834.44;;;49.86;6.74
19596;BME280;9945;46.010;8.946;2023-03-25T12:02:19;96835.25;;;50.78;6.02
19596;BME280;9945;46.010;8.946;2023-03-25T12:04:55;96833.56;;;52.01;5.60
19596;BME280;9945;46.010;8.946;2023-03-25T12:07:23;96828.66;;;53.61;5.01
19596;BME280;9945;46.010;8.946;2023-03-25T12:09:54;96815.06;;;53.76;5.49
19596;BME280;9945;46.010;8.946;2023-03-25T12:12:32;96810.72;;;54.17;4.74
19596;BME280;9945;46.010;8.946;2023-03-25T12:15:11;96819.50;;;54.19;4.93
19596;BME280;9945;46.010;8.946;2023-03-25T12:17:50;96808.72;;;54.30;4.02
19596;BME280;9945;46.010;8.946;2023-03-25T12:20:26;96802.03;;;54.53;4.22
19596;BME280;9945;46.010;8.946;2023-03-25T12:23:00;96788.38;;;55.15;3.93
19596;BME280;9945;46.010;8.946;2023-03-25T12:25:38;96796.53;;;55.69;3.41
19596;BME280;9945;46.010;8.946;2023-03-25T12:28:25;96786.53;;;54.86;3.72
19596;BME280;9945;46.010;8.946;2023-03-25T12:31:03;96786.34;;;55.28;3.95
19596;BME280;9945;46.010;8.946;2023-03-25T12:33:48;96770.97;;;55.54;4.01
19596;BME280;9945;46.010;8.946;2023-03-25T12:36:37;96776.13;;;55.99;3.42
19596;BME280;9945;46.010;8.946;2023-03-25T12:39:19;96769.25;;;56.93;3.57
19596;BME280;9945;46.010;8.946;2023-03-25T12:41:56;96773.41;;;57.56;3.07
19596;BME280;9945;46.010;8.946;2023-03-25T12:44:42;96756.41;;;57.01;3.49
19596;BME280;9945;46.010;8.946;2023-03-25T12:47:22;96744.16;;;56.86;3.14
19596;BME280;9945;46.010;8.946;2023-03-25T12:50:00;96745.66;;;57.27;3.32
19596;BME280;9945;46.010;8.946;2023-03-25T12:52:34;96752.34;;;57.11;3.59
19596;BME280;9945;46.010;8.946;2023-03-25T12:55:16;96734.56;;;57.23;3.08
19596;BME280;9945;46.010;8.946;2023-03-25T12:58:00;96737.25;;;56.78;2.85
19596;BME280;9945;46.010;8.946;2023-03-25T13:00:42;96731.31;;;56.85;2.79
19596;BME280;9945;46.010;8.946;2023-03-25T13:03:32;96728.41;;;55.87;3.44
19596;BME280;9945;46.010;8.946;2023-03-25T13:06:15;96716.31;;;54.86;3.69
19596;BME280;9945;46.010;8.946;2023-03-25T13:08:46;96692.03;;;53.20;3.87
19596;BME280;9945;46.010;8.946;2023-03-25T13:11:19;96694.50;;;53.02;3.92
19596;BME280;9945;46.010;8.946;2023-03-25T13:13:48;96704.25;;;52.81;3.40
19596;BME280;9945;46.010;8.946;2023-03-25T13:16:20;96705.47;;;52.80;4.04
19596;BME280;9945;46.010;8.946;2023-03-25T13:18:53;96696.38;;;52.60;3.80
19596;BME280;9945;46.010;8.946;2023-03-25T13:21:25;96705.72;;;52.01;3.86
19596;BME280;9945;46.010;8.946;2023-03-25T13:23:57;96690.34;;;51.11;4.03
19596;BME280;9945;46.010;8.946;2023-03-25T13:26:28;96673.66;;;50.10;4.33
19596;BME280;9945;46.010;8.946;2023-03-25T13:28:58;96679.91;;;48.75;4.73
19596;BME280;9945;46.010;8.946;2023-03-25T13:31:31;96670.88;;;46.54;5.28
19596;BME280;9945;46.010;8.946;2023-03-25T13:34:09;96671.22;;;43.80;7.22
19596;BME280;9945;46.010;8.946;2023-03-25T13:36:41;96681.84;;;40.92;8.55
19596;BME280;9945;46.010;8.946;2023-03-25T13:39:14;96665.22;;;38.62;9.66
19596;BME280;9945;46.010;8.946;2023-03-25T13:41:46;96666.38;;;36.79;9.96